Time;durP1;ratioP1;P1;durP2;ratioP2;P2;SDS_P1;SDS_P2;PMS_P1;PMS_P2;Temp;Humidity;BMP_temperature;BMP_pressure;BME280_temperature;BME280_humidity;BME280_pressure;Samples;Min_cycle;Max_cycle;Signal;HPM_P1;HPM_P2
2022/03/10 00:03:10;;;;;;;33.83;17.02;;;;;;;3.67;69.40;101378.50;8367970;28;20514;-64
2022/03/10 00:07:10;;;;;;;37.55;18.15;;;;;;;3.68;69.22;101382.03;8365091;28;20109;-64
2022/03/10 00:11:11;;;;;;;32.28;16.52;;;;;;;3.81;68.48;101384.03;8391201;28;20051;-64
2022/03/10 00:15:11;;;;;;;35.28;18.00;;;;;;;3.78;68.34;101384.19;8381876;28;20036;-64
2022/03/10 00:19:12;;;;;;;40.13;17.63;;;;;;;3.52;69.42;101381.94;8399706;28;20047;-64
2022/03/10 00:23:12;;;;;;;40.65;18.38;;;;;;;3.60;69.39;101384.25;8400794;28;20036;-64
2022/03/10 00:27:13;;;;;;;39.42;18.75;;;;;;;3.27;70.78;101381.38;8382821;28;20040;-64
2022/03/10 00:31:13;;;;;;;37.10;18.17;;;;;;;3.14;71.76;101388.25;8385975;28;20040;-64
2022/03/10 00:35:18;;;;;;;44.42;19.80;;;;;;;2.93;72.92;101386.59;8372265;28;20051;-64
2022/03/10 00:39:18;;;;;;;37.00;17.88;;;;;;;3.21;71.80;101387.03;8358337;28;20090;-64
2022/03/10 00:43:19;;;;;;;40.25;17.33;;;;;;;3.33;71.13;101385.56;8367033;28;20029;-64
2022/03/10 00:47:19;;;;;;;40.60;18.27;;;;;;;3.42;70.78;101402.00;8368322;28;20528;-64
2022/03/10 00:51:19;;;;;;;40.67;18.40;;;;;;;3.37;70.80;101409.41;8394588;28;20054;-64
2022/03/10 00:55:21;;;;;;;37.85;17.80;;;;;;;3.27;71.37;101408.09;8398578;28;20032;-64
2022/03/10 00:59:21;;;;;;;42.70;19.13;;;;;;;3.24;71.55;101402.94;8385327;28;20090;-64
2022/03/10 01:03:21;;;;;;;42.05;18.95;;;;;;;3.22;71.58;101415.47;8366514;28;20033;-64
2022/03/10 01:07:22;;;;;;;43.83;18.60;;;;;;;2.95;72.64;101398.06;8386402;28;20040;-64
2022/03/10 01:11:22;;;;;;;46.85;20.02;;;;;;;3.01;72.42;101399.56;8399162;28;20035;-64
2022/03/10 01:15:25;;;;;;;38.60;17.52;;;;;;;3.14;71.45;101396.25;8380344;28;20036;-64
2022/03/10 01:19:25;;;;;;;42.40;18.73;;;;;;;3.18;71.36;101397.00;8391803;28;20503;-64
2022/03/10 01:23:26;;;;;;;38.75;17.40;;;;;;;3.21;71.44;101397.72;8347895;28;20405;-64
2022/03/10 01:27:26;;;;;;;38.33;19.20;;;;;;;2.85;72.95;101399.44;8347624;28;20037;-64
2022/03/10 01:31:27;;;;;;;35.25;17.67;;;;;;;2.73;73.41;101405.34;8365110;28;20040;-64
2022/03/10 01:35:27;;;;;;;49.17;19.20;;;;;;;2.98;72.63;101389.91;8363358;28;20044;-64
2022/03/10 01:39:28;;;;;;;34.88;16.40;;;;;;;3.07;71.57;101389.47;8346984;28;20052;-64
2022/03/10 01:43:28;;;;;;;40.50;18.35;;;;;;;3.14;71.17;101390.91;8364608;28;20048;-64
2022/03/10 01:47:28;;;;;;;37.28;17.83;;;;;;;3.15;70.93;101390.00;8349655;28;20045;-64
2022/03/10 01:51:29;;;;;;;39.22;17.13;;;;;;;3.03;71.19;101382.56;8369411;28;20033;-64
2022/03/10 01:55:31;;;;;;;40.25;18.35;;;;;;;2.93;71.96;101372.38;8347252;28;20067;-64
2022/03/10 01:59:32;;;;;;;40.42;18.60;;;;;;;2.81;72.69;101373.78;8364342;28;20096;-64
2022/03/10 02:03:33;;;;;;;42.53;18.33;;;;;;;2.73;72.99;101373.31;8347011;28;20515;-64
2022/03/10 02:11:53;;;;;;;45.22;17.90;;;;;;;2.68;72.68;101361.97;8397750;28;20033;-64
2022/03/10 02:17:25;;;;;;;42.15;20.27;;;;;;;2.67;72.97;101373.59;8398691;28;20063;-64
2022/03/10 02:20:14;;;;;;;38.17;18.48;;;;;;;2.67;73.25;101372.72;8381285;28;20049;-64
2022/03/10 02:24:14;;;;;;;37.42;17.77;;;;;;;2.81;72.54;101368.47;8376194;28;20059;-64
2022/03/10 02:28:15;;;;;;;41.55;17.63;;;;;;;2.86;72.08;101376.25;8397384;28;20055;-64
2022/03/10 02:32:16;;;;;;;39.28;18.15;;;;;;;2.84;72.16;101376.31;8370493;28;20120;-64
2022/03/10 02:36:16;;;;;;;39.60;18.27;;;;;;;2.65;72.45;101372.78;8387227;28;20036;-64
2022/03/10 02:40:16;;;;;;;42.95;19.38;;;;;;;2.63;72.74;101371.13;8398489;28;20032;-64
2022/03/10 02:44:17;;;;;;;46.30;19.27;;;;;;;2.55;73.47;101363.47;8398022;28;20032;-64
2022/03/10 02:48:18;;;;;;;51.08;21.15;;;;;;;2.47;73.90;101360.25;8379315;28;20108;-64
2022/03/10 02:52:18;;;;;;;45.97;20.45;;;;;;;2.33;74.12;101362.69;8380038;28;20500;-64
2022/03/10 02:56:18;;;;;;;42.90;19.83;;;;;;;2.39;73.70;101362.44;8401956;28;20029;-64
2022/03/10 03:00:19;;;;;;;42.67;20.27;;;;;;;2.09;74.77;101361.09;8403987;28;20063;-64
2022/03/10 03:04:19;;;;;;;43.85;19.90;;;;;;;2.05;75.70;101356.84;8404656;28;20037;-64
2022/03/10 03:08:20;;;;;;;45.15;18.50;;;;;;;2.27;74.55;101346.97;8401868;28;20032;-64
2022/03/10 03:12:20;;;;;;;45.05;19.55;;;;;;;2.51;73.74;101356.53;8367222;28;20032;-64
2022/03/10 03:16:21;;;;;;;40.60;18.75;;;;;;;2.50;73.73;101361.94;8384722;28;20033;-64
2022/03/10 03:20:21;;;;;;;41.22;20.40;;;;;;;2.34;73.64;101363.53;8385068;28;20040;-64
2022/03/10 03:24:22;;;;;;;39.13;19.52;;;;;;;2.36;73.64;101367.91;8379401;28;20040;-64
2022/03/10 03:28:22;;;;;;;45.28;19.80;;;;;;;2.34;73.94;101369.75;8371581;28;20037;-64
2022/03/10 03:32:23;;;;;;;45.88;20.73;;;;;;;2.34;73.84;101375.09;8368955;28;20041;-64
2022/03/10 03:36:24;;;;;;;48.53;19.63;;;;;;;2.24;74.07;101367.56;8368846;28;20048;-64
2022/03/10 03:40:25;;;;;;;44.67;18.55;;;;;;;2.25;73.85;101375.50;8350770;28;20409;-64
2022/03/10 03:44:25;;;;;;;48.28;21.33;;;;;;;2.24;73.98;101379.13;8378210;28;20041;-64
2022/03/10 03:48:26;;;;;;;40.13;19.73;;;;;;;2.16;74.57;101381.22;8390182;28;20037;-64
2022/03/10 03:52:26;;;;;;;40.63;18.80;;;;;;;2.13;75.01;101375.19;8399997;28;20044;-64
2022/03/10 03:56:27;;;;;;;46.40;19.48;;;;;;;2.05;75.30;101372.84;8382673;28;20089;-64
2022/03/10 04:00:27;;;;;;;47.55;19.70;;;;;;;1.92;76.03;101380.50;8383208;28;20029;-64
2022/03/10 04:04:27;;;;;;;46.65;20.27;;;;;;;1.83;76.17;101377.38;8401529;28;20048;-64
2022/03/10 04:08:28;;;;;;;50.35;20.60;;;;;;;1.80;76.11;101380.16;8354767;28;20045;-64
2022/03/10 04:12:28;;;;;;;49.15;20.60;;;;;;;1.76;76.16;101382.06;8390589;28;20056;-64
2022/03/10 04:16:29;;;;;;;46.92;21.27;;;;;;;1.62;77.13;101384.44;8383661;28;20047;-64
2022/03/10 04:20:30;;;;;;;44.95;19.92;;;;;;;1.63;76.81;101380.88;8388578;28;20421;-64
2022/03/10 04:24:31;;;;;;;50.30;21.35;;;;;;;1.70;76.81;101381.47;8384436;28;20412;-64
2022/03/10 04:28:31;;;;;;;50.05;20.63;;;;;;;1.77;76.03;101385.63;8399588;28;20052;-64
2022/03/10 04:32:41;;;;;;;52.95;21.20;;;;;;;1.77;75.95;101390.97;8400979;28;20404;-64
2022/03/10 04:36:42;;;;;;;43.78;20.75;;;;;;;1.70;75.94;101384.13;8380338;28;20059;-64
2022/03/10 04:40:42;;;;;;;45.35;20.55;;;;;;;1.62;76.76;101389.75;8352341;28;20051;-64
2022/03/10 04:44:43;;;;;;;43.88;18.33;;;;;;;1.66;76.54;101385.19;8349086;28;20108;-64
2022/03/10 04:48:43;;;;;;;42.75;19.70;;;;;;;1.59;76.60;101397.03;8379940;28;20075;-64
2022/03/10 04:52:44;;;;;;;51.15;21.35;;;;;;;1.50;76.83;101397.41;8400964;28;20511;-64
2022/03/10 04:56:44;;;;;;;44.90;20.98;;;;;;;1.22;78.34;101399.44;8382286;28;20043;-64
2022/03/10 05:00:45;;;;;;;47.40;19.92;;;;;;;1.27;78.75;101394.78;8397737;28;20033;-64
2022/03/10 05:04:45;;;;;;;46.72;20.27;;;;;;;1.28;78.85;101399.22;8379719;28;20300;-64
2022/03/10 05:08:45;;;;;;;47.70;20.75;;;;;;;1.28;78.91;101393.88;8385977;28;20063;-64
2022/03/10 05:12:52;;;;;;;48.72;19.08;;;;;;;1.28;79.03;101399.22;8380576;28;20055;-64
2022/03/10 05:16:52;;;;;;;49.58;19.48;;;;;;;1.26;78.93;101407.25;8413035;28;20036;-64
2022/03/10 05:20:53;;;;;;;51.60;20.73;;;;;;;1.20;79.04;101401.28;8382548;28;20032;-64
2022/03/10 05:24:53;;;;;;;49.83;19.10;;;;;;;1.27;79.12;101398.34;8371272;28;20093;-64
2022/03/10 05:28:54;;;;;;;56.78;20.42;;;;;;;1.35;78.54;101411.34;8366719;28;20068;-64
2022/03/10 05:32:54;;;;;;;47.15;18.27;;;;;;;1.42;78.20;101412.81;8375454;28;20033;-64
2022/03/10 05:36:55;;;;;;;45.63;20.25;;;;;;;1.50;77.59;101416.91;8381361;28;20503;-64
2022/03/10 05:40:55;;;;;;;48.55;20.85;;;;;;;1.55;77.68;101414.94;8394015;28;20496;-64
2022/03/10 05:44:55;;;;;;;42.88;17.48;;;;;;;1.61;77.25;101411.16;8393643;28;20056;-64
2022/03/10 05:48:56;;;;;;;44.28;17.33;;;;;;;1.71;77.37;101420.53;8374475;28;20496;-64
2022/03/10 05:52:57;;;;;;;40.75;18.48;;;;;;;1.73;77.18;101413.31;8392357;28;20101;-64
2022/03/10 05:56:58;;;;;;;40.45;17.25;;;;;;;1.68;77.84;101420.66;8373832;28;20036;-64
2022/03/10 06:00:58;;;;;;;44.25;17.15;;;;;;;1.67;77.46;101425.09;8368762;28;20716;-64
2022/03/10 06:05:00;;;;;;;48.03;18.20;;;;;;;1.73;77.69;101429.31;8380054;28;20041;-64
2022/03/10 06:09:00;;;;;;;43.65;18.17;;;;;;;1.72;77.51;101427.59;8391630;28;20381;-64
2022/03/10 06:13:01;;;;;;;45.35;19.27;;;;;;;1.73;76.98;101432.84;8387015;28;20037;-64
2022/03/10 06:17:02;;;;;;;35.60;17.27;;;;;;;1.77;76.06;101436.25;8393700;28;20106;-64
2022/03/10 06:21:02;;;;;;;34.38;17.23;;;;;;;1.86;75.54;101430.56;8377411;28;20041;-64
2022/03/10 06:25:04;;;;;;;41.03;16.67;;;;;;;1.98;74.92;101433.56;8339149;28;20079;-64
2022/03/10 06:29:06;;;;;;;37.15;17.33;;;;;;;2.00;74.22;101436.16;8386937;28;20040;-64
2022/03/10 06:33:06;;;;;;;42.17;16.92;;;;;;;2.15;73.88;101446.19;8359831;28;20036;-64
2022/03/10 06:37:08;;;;;;;36.42;17.08;;;;;;;2.46;73.19;101437.72;8384359;28;20447;-64
2022/03/10 06:41:08;;;;;;;40.42;18.42;;;;;;;2.36;73.09;101445.28;8360966;28;20041;-64
2022/03/10 06:45:09;;;;;;;38.88;18.17;;;;;;;2.42;73.47;101441.47;8362258;28;20064;-65
2022/03/10 06:49:10;;;;;;;40.40;17.58;;;;;;;2.48;73.29;101451.88;8384269;28;20532;-64
2022/03/10 06:53:11;;;;;;;40.03;18.67;;;;;;;2.58;73.08;101443.41;8400415;28;20528;-64
2022/03/10 06:57:12;;;;;;;46.40;21.17;;;;;;;2.70;73.11;101448.19;8383929;28;20177;-64
2022/03/10 07:01:13;;;;;;;56.55;23.25;;;;;;;2.84;72.89;101447.56;8401567;28;20031;-64
2022/03/10 07:05:14;;;;;;;57.83;24.55;;;;;;;2.92;72.79;101448.94;8368104;28;20425;-64
2022/03/10 07:09:15;;;;;;;52.85;24.08;;;;;;;3.17;72.90;101449.56;8402642;28;22807;-64
2022/03/10 07:13:15;;;;;;;46.63;20.10;;;;;;;3.30;73.05;101445.34;8401688;28;20043;-64
2022/03/10 07:17:15;;;;;;;38.97;16.77;;;;;;;3.50;72.38;101452.44;8382774;28;20503;-64
2022/03/10 07:21:18;;;;;;;41.92;18.35;;;;;;;3.64;72.69;101460.66;8376980;28;20067;-64
2022/03/10 07:25:20;;;;;;;44.28;18.35;;;;;;;3.86;72.01;101456.88;8382325;28;20039;-64
2022/03/10 07:29:20;;;;;;;42.17;18.70;;;;;;;4.17;71.72;101447.34;8381371;28;20043;-64
2022/03/10 07:33:21;;;;;;;39.33;17.33;;;;;;;4.28;71.53;101447.63;8380742;28;20033;-64
2022/03/10 07:37:22;;;;;;;39.70;18.67;;;;;;;4.61;70.26;101446.78;8398335;28;20056;-64
2022/03/10 07:41:22;;;;;;;39.50;18.02;;;;;;;4.83;68.73;101451.84;8384914;28;20059;-64
2022/03/10 07:45:22;;;;;;;40.95;18.48;;;;;;;5.02;67.37;101457.94;8378354;28;20044;-64
2022/03/10 07:49:23;;;;;;;42.30;17.50;;;;;;;5.33;66.85;101452.63;8379389;28;20044;-64
2022/03/10 07:53:23;;;;;;;39.88;16.10;;;;;;;5.55;66.13;101453.22;8396041;28;20060;-65
2022/03/10 07:57:24;;;;;;;33.80;16.35;;;;;;;5.57;66.20;101451.28;8395656;28;20032;-65
2022/03/10 08:01:24;;;;;;;38.28;17.20;;;;;;;5.68;66.32;101448.88;8397448;28;20408;-64
2022/03/10 08:05:25;;;;;;;32.85;16.40;;;;;;;5.84;66.62;101444.38;8386894;28;20043;-64
2022/03/10 08:09:25;;;;;;;37.78;17.02;;;;;;;6.22;66.06;101450.22;8377061;28;20048;-64
2022/03/10 08:13:26;;;;;;;38.95;16.95;;;;;;;6.46;65.77;101446.91;8394985;28;20040;-64
2022/03/10 08:17:27;;;;;;;33.97;17.77;;;;;;;6.63;64.71;101451.28;8393475;28;20045;-64
2022/03/10 08:21:27;;;;;;;44.50;18.58;;;;;;;6.76;64.96;101437.00;8393718;28;20060;-65
2022/03/10 08:25:28;;;;;;;37.30;17.13;;;;;;;7.07;63.64;101441.34;8375549;28;20032;-65
2022/03/10 08:29:28;;;;;;;36.88;17.08;;;;;;;7.46;62.74;101452.28;8392860;28;20638;-65
2022/03/10 08:33:28;;;;;;;32.22;17.23;;;;;;;7.63;62.42;101436.75;8392828;28;20496;-65
2022/03/10 08:37:29;;;;;;;35.85;17.13;;;;;;;8.04;60.74;101447.50;8392108;28;20364;-65
2022/03/10 08:41:29;;;;;;;35.85;17.58;;;;;;;8.28;61.64;101436.94;8392634;28;20090;-65
2022/03/10 08:45:30;;;;;;;36.35;17.52;;;;;;;8.69;59.88;101441.25;8391790;28;20484;-65
2022/03/10 08:49:31;;;;;;;33.30;16.77;;;;;;;8.98;58.54;101437.38;8391600;28;20037;-65
2022/03/10 08:53:32;;;;;;;30.50;15.52;;;;;;;8.98;56.55;101431.13;8390620;28;20044;-65
2022/03/10 08:57:33;;;;;;;33.20;16.40;;;;;;;9.43;56.78;101427.84;8372499;28;20081;-65
2022/03/10 09:01:33;;;;;;;30.33;16.63;;;;;;;9.54;55.93;101419.81;8391672;28;20036;-65
2022/03/10 09:05:36;;;;;;;31.02;16.30;;;;;;;9.74;55.62;101421.91;8390291;28;20040;-65
2022/03/10 09:09:36;;;;;;;30.60;15.85;;;;;;;10.01;54.77;101414.47;8389838;28;20048;-65
2022/03/10 09:13:37;;;;;;;30.27;15.75;;;;;;;10.32;54.15;101410.31;8373910;28;20360;-65
2022/03/10 09:17:37;;;;;;;33.70;16.40;;;;;;;10.36;53.89;101406.41;8388909;28;20040;-65
2022/03/10 09:21:38;;;;;;;35.95;15.98;;;;;;;10.71;53.32;101405.41;8372046;28;20033;-65
2022/03/10 09:25:38;;;;;;;29.73;15.85;;;;;;;12.15;50.85;101402.59;8389505;28;20044;-65
2022/03/10 09:29:39;;;;;;;31.15;16.33;;;;;;;13.20;47.71;101387.91;8371356;28;20040;-65
2022/03/10 09:33:39;;;;;;;33.65;17.30;;;;;;;13.73;46.68;101392.13;8390187;28;20036;-65
2022/03/10 09:37:40;;;;;;;30.88;15.57;;;;;;;14.64;45.25;101385.31;8388819;28;20048;-65
2022/03/10 09:41:41;;;;;;;33.50;16.45;;;;;;;15.30;44.42;101384.28;8389364;28;20040;-65
2022/03/10 09:45:43;;;;;;;31.42;16.33;;;;;;;16.17;43.57;101380.06;8389520;28;20036;-65
2022/03/10 09:49:44;;;;;;;35.55;17.00;;;;;;;16.22;44.28;101382.31;8389052;28;20086;-65
2022/03/10 09:53:44;;;;;;;32.70;16.88;;;;;;;16.26;42.79;101375.53;8378126;28;20284;-65
2022/03/10 09:57:46;;;;;;;30.23;16.92;;;;;;;17.31;41.87;101378.06;8391545;28;20097;-65
2022/03/10 10:01:47;;;;;;;33.70;16.55;;;;;;;17.48;41.25;101369.78;8392836;28;20036;-65
2022/03/10 10:05:48;;;;;;;29.70;17.10;;;;;;;17.80;41.28;101369.06;8394970;28;20090;-65
2022/03/10 10:09:53;;;;;;;32.20;17.70;;;;;;;18.03;41.34;101375.63;8395942;28;20124;-65
2022/03/10 10:13:54;;;;;;;35.25;17.13;;;;;;;17.59;40.36;101371.38;8395969;28;20032;-65
2022/03/10 10:17:56;;;;;;;32.47;17.95;;;;;;;18.33;39.75;101361.28;8394684;28;20036;-65
2022/03/10 10:22:19;;;;;;;29.95;17.35;;;;;;;18.91;39.48;101359.25;8394953;28;20532;-65
2022/03/10 10:26:26;;;;;;;33.28;17.00;;;;;;;18.33;39.61;101354.97;8402865;28;20032;-65
2022/03/10 10:30:26;;;;;;;32.25;17.65;;;;;;;18.43;40.38;101344.75;8394006;28;20074;-65
2022/03/10 10:34:30;;;;;;;33.63;18.20;;;;;;;18.70;39.72;101347.97;8395162;28;20044;-65
2022/03/10 10:38:31;;;;;;;33.57;18.27;;;;;;;18.84;38.72;101344.53;8394629;28;20032;-66
2022/03/10 10:42:36;;;;;;;32.60;18.08;;;;;;;18.52;38.98;101338.22;8376951;28;20035;-65
2022/03/10 10:46:38;;;;;;;30.55;17.13;;;;;;;18.93;38.71;101338.00;8394180;28;20037;-66
2022/03/10 10:50:42;;;;;;;34.30;18.48;;;;;;;18.71;39.12;101338.75;8394029;28;20044;-65
2022/03/10 10:54:42;;;;;;;34.53;18.20;;;;;;;19.80;38.11;101328.78;8376929;28;20045;-65
2022/03/10 10:58:45;;;;;;;30.15;17.30;;;;;;;20.39;37.52;101328.06;8394164;28;20488;-65
2022/03/10 11:02:46;;;;;;;35.08;18.05;;;;;;;20.09;38.09;101310.56;8388235;28;20071;-65
2022/03/10 11:06:47;;;;;;;29.88;17.60;;;;;;;20.62;36.79;101307.75;8393674;28;20044;-65
2022/03/10 11:10:48;;;;;;;35.95;18.63;;;;;;;20.67;37.15;101301.69;8375851;28;20041;-65
2022/03/10 11:14:49;;;;;;;34.85;19.70;;;;;;;21.03;36.15;101294.47;8394741;28;20028;-65
2022/03/10 11:18:52;;;;;;;32.67;17.88;;;;;;;20.76;36.31;101292.31;8394260;28;20039;-65
2022/03/10 11:23:08;;;;;;;34.40;17.80;;;;;;;20.92;36.10;101276.50;8376043;28;20377;-65
2022/03/10 11:27:15;;;;;;;29.40;17.50;;;;;;;20.76;36.91;101286.81;8374933;28;20033;-65
2022/03/10 11:31:17;;;;;;;34.42;17.83;;;;;;;21.88;35.60;101274.44;8393530;28;20048;-65
2022/03/10 11:35:17;;;;;;;30.92;17.55;;;;;;;21.50;35.76;101281.13;8377333;28;20496;-65
2022/03/10 11:39:23;;;;;;;31.92;17.33;;;;;;;21.80;35.19;101271.81;8393755;28;20202;-65
2022/03/10 11:43:38;;;;;;;36.72;18.77;;;;;;;21.80;35.05;101271.81;8392911;28;20040;-65
2022/03/10 11:47:39;;;;;;;37.85;18.95;;;;;;;21.77;35.42;101261.19;8392637;28;20119;-65
2022/03/10 11:51:59;;;;;;;30.48;17.55;;;;;;;21.92;34.81;101253.72;8394585;28;20175;-65
2022/03/10 11:55:59;;;;;;;29.08;17.48;;;;;;;21.67;34.38;101249.59;8394561;28;20048;-65
2022/03/10 12:00:00;;;;;;;31.95;17.45;;;;;;;22.53;34.46;101236.50;8392434;28;20481;-65
2022/03/10 12:04:00;;;;;;;31.50;17.48;;;;;;;22.27;33.35;101233.53;8391264;28;20054;-65
2022/03/10 12:08:01;;;;;;;30.70;16.85;;;;;;;21.62;32.56;101230.06;8390850;28;20407;-65
2022/03/10 12:12:19;;;;;;;34.17;18.92;;;;;;;21.56;33.14;101225.31;8391660;28;20036;-65
2022/03/10 12:20:40;;;;;;;34.55;17.42;;;;;;;21.24;33.36;101217.53;8420038;27;20487;-64
2022/03/10 12:24:41;;;;;;;36.35;18.92;;;;;;;21.30;33.37;101214.03;8418431;28;20531;-64
2022/03/10 12:28:42;;;;;;;48.80;18.37;;;;;;;20.93;33.03;101211.38;8417764;28;20463;-64
2022/03/10 12:32:45;;;;;;;31.60;17.20;;;;;;;21.67;33.20;101205.56;8418236;27;20825;-64
2022/03/10 12:36:52;;;;;;;31.25;17.85;;;;;;;21.70;33.20;101205.16;8401288;28;20524;-64
2022/03/10 12:40:55;;;;;;;32.00;17.77;;;;;;;21.60;32.64;101204.66;8417479;28;20124;-64
2022/03/10 12:44:56;;;;;;;32.95;18.17;;;;;;;21.37;33.00;101198.44;8417337;27;20123;-64
2022/03/10 12:49:03;;;;;;;32.85;17.00;;;;;;;21.21;32.99;101209.69;8404284;28;20041;-64
2022/03/10 12:53:12;;;;;;;29.35;17.10;;;;;;;21.48;32.47;101195.19;8417276;28;20050;-64
2022/03/10 12:57:13;;;;;;;31.23;17.45;;;;;;;21.78;33.53;101182.19;8415845;27;20370;-64
2022/03/10 13:01:14;;;;;;;32.25;17.38;;;;;;;20.78;33.47;101191.28;8416801;28;20051;-64
2022/03/10 13:05:22;;;;;;;28.77;16.05;;;;;;;19.58;34.61;101185.06;8414273;28;20506;-64
2022/03/10 13:09:23;;;;;;;28.77;15.48;;;;;;;18.80;34.72;101177.91;8365579;28;20040;-64
2022/03/10 13:13:28;;;;;;;25.42;14.32;;;;;;;18.45;35.54;101168.25;8375708;28;20047;-64
2022/03/10 13:17:32;;;;;;;29.85;15.60;;;;;;;18.29;36.55;101161.94;8363269;28;20044;-64
2022/03/10 13:21:33;;;;;;;22.83;13.68;;;;;;;18.19;35.41;101162.16;8405349;28;20082;-64
2022/03/10 13:25:36;;;;;;;24.02;13.18;;;;;;;18.30;35.31;101163.66;8365815;28;20037;-64
2022/03/10 13:29:37;;;;;;;21.95;13.27;;;;;;;18.12;35.88;101150.19;8340926;28;20038;-64
2022/03/10 13:33:37;;;;;;;25.48;13.35;;;;;;;17.70;35.93;101138.59;8334229;28;20037;-64
2022/03/10 13:37:40;;;;;;;22.30;12.52;;;;;;;17.66;36.55;101148.19;8374465;28;20041;-64
2022/03/10 13:41:43;;;;;;;22.63;13.07;;;;;;;17.65;36.96;101135.50;8362378;28;20048;-64
2022/03/10 13:45:44;;;;;;;20.60;12.07;;;;;;;17.99;37.84;101133.44;8360023;28;20071;-64
2022/03/10 13:49:46;;;;;;;25.90;11.85;;;;;;;17.73;36.77;101132.78;8371418;28;20052;-63
2022/03/10 13:53:55;;;;;;;21.48;11.80;;;;;;;17.74;36.99;101117.22;8363919;28;20038;-63
2022/03/10 13:57:57;;;;;;;16.80;10.32;;;;;;;17.66;37.35;101126.31;8341123;28;20041;-63
2022/03/10 14:01:57;;;;;;;18.08;10.00;;;;;;;17.48;37.70;101123.72;8316055;28;20044;-63
2022/03/10 14:06:01;;;;;;;21.80;8.40;;;;;;;17.55;37.32;101112.97;8348884;28;20034;-63
2022/03/10 14:10:03;;;;;;;14.00;8.18;;;;;;;17.77;37.05;101106.78;8332043;28;20299;-63
2022/03/10 14:14:04;;;;;;;15.48;7.63;;;;;;;17.65;37.34;101113.63;8309974;28;20076;-63
2022/03/10 14:18:09;;;;;;;12.95;8.25;;;;;;;17.50;37.80;101110.72;8343001;28;20060;-63
2022/03/10 14:22:18;;;;;;;;;;;;;;;17.48;38.66;101095.53;8369454;28;20033;-63
2022/03/10 14:26:19;;;;;;;13.25;7.88;;;;;;;17.21;38.10;101093.94;8333270;28;20348;-63
2022/03/10 14:30:24;;;;;;;15.27;8.50;;;;;;;17.29;39.07;101098.53;8328921;28;20029;-63
2022/03/10 14:34:25;;;;;;;13.93;8.07;;;;;;;17.13;37.97;101098.53;8332947;28;20096;-64
2022/03/10 14:38:25;;;;;;;12.65;7.25;;;;;;;17.01;38.71;101092.53;8312661;28;20045;-64
2022/03/10 14:42:26;;;;;;;14.52;7.13;;;;;;;17.00;38.91;101092.72;8317082;28;20112;-64
2022/03/10 14:46:26;;;;;;;12.52;7.43;;;;;;;17.07;38.60;101086.41;8321817;28;20029;-64
2022/03/10 14:50:27;;;;;;;13.27;7.38;;;;;;;16.97;38.38;101073.91;8349686;28;20094;-64
2022/03/10 14:54:27;;;;;;;16.33;7.82;;;;;;;17.07;38.30;101074.63;8329693;28;20037;-64
2022/03/10 14:58:27;;;;;;;11.32;6.50;;;;;;;17.09;38.73;101058.91;8308625;28;20037;-64
2022/03/10 15:02:28;;;;;;;13.80;6.65;;;;;;;17.36;38.28;101066.78;8309762;28;20141;-64
2022/03/10 15:06:30;;;;;;;15.32;7.03;;;;;;;17.17;37.93;101062.50;8303463;28;20087;-64
2022/03/10 15:10:31;;;;;;;13.63;5.60;;;;;;;17.07;38.77;101059.09;8320174;28;20025;-64
2022/03/10 15:14:31;;;;;;;13.13;6.22;;;;;;;17.01;38.87;101053.44;8321666;28;20034;-64
2022/03/10 15:18:32;;;;;;;13.10;6.60;;;;;;;17.02;38.92;101050.53;8313198;28;20052;-64
2022/03/10 15:22:32;;;;;;;12.10;5.90;;;;;;;17.02;38.66;101049.69;8317558;28;20052;-64
2022/03/10 15:26:33;;;;;;;8.18;5.45;;;;;;;16.98;38.23;101043.69;8316662;28;20410;-64
2022/03/10 15:30:33;;;;;;;13.13;5.88;;;;;;;16.91;38.77;101041.81;8288215;28;20064;-64
2022/03/10 15:34:34;;;;;;;9.82;5.88;;;;;;;16.92;38.97;101040.78;8304001;28;20041;-64
2022/03/10 15:38:36;;;;;;;7.25;4.13;;;;;;;16.92;38.75;101038.03;8286851;28;20128;-64
2022/03/10 15:42:36;;;;;;;6.28;3.60;;;;;;;16.88;38.41;101036.69;8287898;28;20486;-64
2022/03/10 15:46:38;;;;;;;11.90;3.03;;;;;;;16.85;38.29;101037.03;8294103;28;20470;-64
2022/03/10 15:50:40;;;;;;;7.38;4.13;;;;;;;16.81;38.52;101032.94;8312361;28;20463;-64
2022/03/10 15:54:40;;;;;;;3.92;2.65;;;;;;;16.68;38.83;101032.56;8301495;28;20041;-64
2022/03/10 15:58:41;;;;;;;5.57;3.17;;;;;;;16.62;39.76;101025.03;8287190;28;20053;-64
2022/03/10 16:02:42;;;;;;;6.93;2.70;;;;;;;16.55;39.89;101023.97;8301887;28;20076;-64
2022/03/10 16:06:43;;;;;;;4.82;2.17;;;;;;;16.45;37.99;101018.69;8294639;28;20376;-64
2022/03/10 16:10:43;;;;;;;9.75;2.25;;;;;;;16.40;37.92;101017.41;8302016;28;20034;-64
2022/03/10 16:14:44;;;;;;;4.85;2.03;;;;;;;16.27;38.64;101004.25;8287391;28;20117;-64
2022/03/10 16:18:44;;;;;;;8.88;2.60;;;;;;;16.19;38.46;101019.75;8300947;28;20042;-64
2022/03/10 16:22:45;;;;;;;4.47;2.40;;;;;;;16.06;38.82;101009.28;8318513;28;20048;-64
2022/03/10 16:26:46;;;;;;;11.18;2.10;;;;;;;15.95;37.94;101014.19;8307747;28;20056;-64
2022/03/10 16:30:52;;;;;;;6.07;2.30;;;;;;;15.94;37.37;101001.53;8296712;28;20117;-64
2022/03/10 16:34:52;;;;;;;3.92;2.47;;;;;;;15.83;38.77;101018.19;8303818;28;20096;-64
2022/03/10 16:38:55;;;;;;;3.80;2.40;;;;;;;15.60;39.14;101010.59;8317188;28;20132;-64
2022/03/10 16:42:56;;;;;;;5.22;2.53;;;;;;;15.46;39.44;101008.44;8281139;28;20064;-64
2022/03/10 16:46:56;;;;;;;6.53;3.42;;;;;;;15.39;39.25;101012.81;8295231;28;20046;-64
2022/03/10 16:50:57;;;;;;;5.65;3.50;;;;;;;15.38;39.28;101015.69;8336422;28;20048;-64
2022/03/10 16:54:57;;;;;;;6.60;3.35;;;;;;;15.30;39.62;101016.47;8311888;28;20051;-64
2022/03/10 16:58:57;;;;;;;8.48;3.05;;;;;;;14.96;40.52;101017.34;8310490;28;20041;-64
2022/03/10 17:02:58;;;;;;;5.32;3.58;;;;;;;14.76;41.09;101015.81;8304991;28;20493;-64
2022/03/10 17:06:58;;;;;;;5.97;3.45;;;;;;;14.81;40.90;101017.06;8318049;28;20041;-64
2022/03/10 17:10:59;;;;;;;5.65;4.05;;;;;;;14.64;41.10;101009.72;8340006;28;20045;-64
2022/03/10 17:14:59;;;;;;;5.47;3.40;;;;;;;14.55;41.37;101013.38;8311745;28;20038;-64
2022/03/10 17:19:00;;;;;;;10.35;4.65;;;;;;;14.45;41.63;101015.31;8310413;28;20421;-64
2022/03/10 17:23:00;;;;;;;5.97;4.45;;;;;;;14.26;42.05;101020.00;8326872;28;20041;-64
2022/03/10 17:27:02;;;;;;;7.80;4.15;;;;;;;14.13;42.34;101006.75;8324862;28;20045;-64
2022/03/10 17:31:03;;;;;;;8.32;4.72;;;;;;;13.95;42.77;101016.72;8324863;28;20586;-64
2022/03/10 17:35:04;;;;;;;16.73;5.05;;;;;;;13.55;43.75;101013.44;8312730;28;20049;-64
2022/03/10 17:39:05;;;;;;;11.52;4.80;;;;;;;13.31;44.53;101010.34;8301325;28;20061;-63
2022/03/10 17:43:06;;;;;;;11.68;4.47;;;;;;;13.00;45.53;101012.41;8321389;28;20037;-63
2022/03/10 17:47:06;;;;;;;13.20;5.40;;;;;;;12.70;46.43;101015.22;8309849;28;20119;-63
2022/03/10 17:51:08;;;;;;;8.13;4.72;;;;;;;12.49;47.27;101022.63;8324423;28;20072;-63
2022/03/10 17:55:09;;;;;;;11.23;4.55;;;;;;;12.37;47.30;101023.72;8319248;28;20088;-63
2022/03/10 17:59:09;;;;;;;9.57;5.20;;;;;;;12.17;47.63;101026.53;8333345;28;20054;-63
2022/03/10 18:03:10;;;;;;;11.65;5.88;;;;;;;11.36;50.92;101027.44;8324871;28;20099;-63
2022/03/10 18:07:10;;;;;;;13.80;6.35;;;;;;;11.50;50.03;101032.47;8317325;28;20041;-63
2022/03/10 18:11:12;;;;;;;11.90;6.60;;;;;;;11.67;49.71;101029.19;8311233;28;20042;-63
2022/03/10 18:15:12;;;;;;;13.40;5.78;;;;;;;12.00;48.28;101032.59;8294635;28;20049;-63
2022/03/10 18:19:14;;;;;;;12.35;5.93;;;;;;;12.04;48.28;101020.53;8302850;28;20041;-63
2022/03/10 18:23:15;;;;;;;11.95;6.47;;;;;;;11.99;48.40;101018.22;8362283;28;20068;-63
2022/03/10 18:27:15;;;;;;;11.02;5.55;;;;;;;11.81;48.63;101031.53;8363472;28;20514;-63
2022/03/10 18:31:15;;;;;;;12.60;6.28;;;;;;;11.75;48.71;101032.06;8359823;28;20061;-64
2022/03/10 18:35:16;;;;;;;9.73;5.85;;;;;;;11.72;48.78;101021.50;8328223;28;20037;-65
2022/03/10 18:39:16;;;;;;;14.82;7.05;;;;;;;11.69;48.59;101021.78;8300170;28;20251;-65